Time;durP1;ratioP1;P1;durP2;ratioP2;P2;SDS_P1;SDS_P2;PMS_P1;PMS_P2;Temp;Humidity;BMP_temperature;BMP_pressure;BME280_temperature;BME280_humidity;BME280_pressure;Samples;Min_cycle;Max_cycle;Signal;HPM_P1;HPM_P2
2021/06/18 00:02:20;;;;;;;0.95;0.13;;;21.60;72.80;;;;;;5033331;28;20029;-87
2021/06/18 00:04:47;;;;;;;0.30;0.03;;;21.60;72.90;;;;;;5051748;28;20025;-86
2021/06/18 00:07:13;;;;;;;0.38;0.10;;;21.60;73.00;;;;;;5051815;28;20044;-86
2021/06/18 00:09:39;;;;;;;0.43;0.10;;;21.50;72.90;;;;;;5030257;28;20021;-85
2021/06/18 00:12:05;;;;;;;1.33;0.30;;;21.60;72.80;;;;;;5047650;28;20390;-85
2021/06/18 00:14:32;;;;;;;0.10;0.00;;;21.60;72.90;;;;;;5034120;28;20466;-85
2021/06/18 00:16:58;;;;;;;0.47;0.10;;;21.60;72.80;;;;;;5047265;28;20041;-84
2021/06/18 00:19:24;;;;;;;0.20;0.03;;;21.60;72.80;;;;;;5046703;28;20028;-85
2021/06/18 00:21:50;;;;;;;0.38;0.22;;;21.60;72.90;;;;;;5046163;28;20088;-85
2021/06/18 00:24:16;;;;;;;1.27;0.10;;;21.60;72.90;;;;;;5017529;28;20041;-84
2021/06/18 00:26:42;;;;;;;0.40;0.10;;;21.60;72.70;;;;;;5049095;28;20035;-86
2021/06/18 00:29:08;;;;;;;0.30;0.10;;;21.70;72.70;;;;;;5031925;28;20037;-85
2021/06/18 00:31:34;;;;;;;0.68;0.30;;;21.80;72.60;;;;;;5046192;28;20471;-85
2021/06/18 00:34:01;;;;;;;1.48;0.40;;;21.80;72.50;;;;;;5047453;28;20041;-84
2021/06/18 00:36:27;;;;;;;2.40;0.00;;;21.80;72.30;;;;;;5029383;28;20028;-85
2021/06/18 00:38:53;;;;;;;3.00;0.30;;;21.80;72.30;;;;;;5050773;28;20036;-84
2021/06/18 00:41:19;;;;;;;0.60;0.20;;;21.90;72.50;;;;;;5051796;28;20853;-85
2021/06/18 00:43:45;;;;;;;0.68;0.13;;;21.80;72.60;;;;;;5052366;28;20036;-84
2021/06/18 00:46:12;;;;;;;0.20;0.20;;;21.80;72.70;;;;;;5051135;28;20510;-84
2021/06/18 00:48:38;;;;;;;1.70;0.13;;;21.80;72.70;;;;;;5033916;28;20437;-84
2021/06/18 00:51:04;;;;;;;0.75;0.52;;;21.80;72.80;;;;;;5051406;28;20028;-84
2021/06/18 00:53:30;;;;;;;0.20;0.10;;;21.70;72.80;;;;;;5034042;28;20025;-84
2021/06/18 00:55:56;;;;;;;0.00;0.00;;;21.70;73.00;;;;;;5051264;28;20036;-84
2021/06/18 00:58:22;;;;;;;0.08;0.08;;;21.70;73.00;;;;;;5051866;28;20033;-83
2021/06/18 01:00:48;;;;;;;0.43;0.20;;;21.70;73.20;;;;;;5049940;28;20359;-84
2021/06/18 01:03:15;;;;;;;1.85;0.10;;;21.60;73.20;;;;;;5033983;28;20033;-84
2021/06/18 01:05:41;;;;;;;0.75;0.10;;;21.70;73.30;;;;;;5050131;28;20025;-83
2021/06/18 01:08:24;;;;;;;0.77;0.55;;;21.70;73.30;;;;;;5052859;28;20041;-83
2021/06/18 01:11:05;;;;;;;1.38;0.15;;;21.60;73.40;;;;;;5052798;28;20037;-83
2021/06/18 01:13:37;;;;;;;0.55;0.00;;;21.60;73.50;;;;;;5066101;28;20029;-83
2021/06/18 01:16:11;;;;;;;0.20;0.10;;;21.60;73.80;;;;;;5052741;28;20034;-83
2021/06/18 01:18:44;;;;;;;1.20;0.15;;;21.60;74.20;;;;;;5035324;28;20074;-84
2021/06/18 01:21:17;;;;;;;2.17;0.30;;;21.50;74.30;;;;;;5018739;28;20044;-83
2021/06/18 01:23:57;;;;;;;0.73;0.20;;;21.50;74.50;;;;;;5054219;28;20032;-83
2021/06/18 01:26:24;;;;;;;1.55;0.20;;;21.50;74.50;;;;;;5037374;28;20029;-83
2021/06/18 01:28:55;;;;;;;0.22;0.00;;;21.50;74.40;;;;;;5051303;28;20048;-84
2021/06/18 01:31:37;;;;;;;0.68;0.10;;;21.40;74.40;;;;;;5032874;28;20528;-82
2021/06/18 01:34:09;;;;;;;0.05;0.05;;;21.50;74.50;;;;;;5017022;28;20041;-84
2021/06/18 01:36:35;;;;;;;0.35;0.10;;;21.50;74.50;;;;;;5051202;28;20029;-84
2021/06/18 01:39:01;;;;;;;0.70;0.40;;;21.40;74.60;;;;;;5033358;28;20381;-85
2021/06/18 01:41:30;;;;;;;0.70;0.08;;;21.40;74.60;;;;;;5053964;28;20029;-83
2021/06/18 01:43:58;;;;;;;0.88;0.25;;;21.30;74.70;;;;;;5050332;28;20025;-83
2021/06/18 01:46:29;;;;;;;1.15;0.13;;;21.30;75.00;;;;;;5032602;28;20049;-83
2021/06/18 01:49:01;;;;;;;0.55;0.20;;;21.20;74.90;;;;;;5016644;28;20048;-83
2021/06/18 01:51:27;;;;;;;0.30;0.20;;;21.20;75.00;;;;;;5049345;28;20485;-83
2021/06/18 01:53:54;;;;;;;0.63;0.13;;;21.20;75.00;;;;;;5017488;28;20037;-82
2021/06/18 01:56:20;;;;;;;0.73;0.22;;;21.20;74.90;;;;;;5052718;28;20037;-84
2021/06/18 01:58:48;;;;;;;0.28;0.08;;;21.20;74.90;;;;;;5054034;28;20501;-83
2021/06/18 02:01:15;;;;;;;0.52;0.20;;;21.20;74.90;;;;;;5032377;28;20041;-84
2021/06/18 02:03:42;;;;;;;0.77;0.20;;;21.20;75.10;;;;;;5028970;28;20493;-86
2021/06/18 02:06:08;;;;;;;8.95;0.30;;;21.20;75.10;;;;;;5039584;28;20041;-82
2021/06/18 02:08:34;;;;;;;1.15;0.40;;;21.20;74.90;;;;;;5048136;28;20046;-82
2021/06/18 02:11:01;;;;;;;0.43;0.08;;;21.20;74.90;;;;;;5051610;28;20385;-83
2021/06/18 02:13:27;;;;;;;0.35;0.20;;;21.20;74.90;;;;;;5044394;28;20029;-84
2021/06/18 02:15:53;;;;;;;2.35;0.25;;;21.20;75.10;;;;;;5050604;28;20036;-81
2021/06/18 02:18:25;;;;;;;0.57;0.35;;;21.10;75.00;;;;;;5047481;28;20032;-85
2021/06/18 02:20:55;;;;;;;0.20;0.10;;;21.10;75.10;;;;;;5034093;28;20033;-83
2021/06/18 02:23:27;;;;;;;0.47;0.20;;;21.10;75.10;;;;;;5049237;28;20024;-84
2021/06/18 02:25:53;;;;;;;0.45;0.10;;;21.20;75.20;;;;;;5051549;28;20135;-82
2021/06/18 02:28:20;;;;;;;0.60;0.17;;;21.10;75.20;;;;;;5048001;28;20040;-82
2021/06/18 02:30:46;;;;;;;0.35;0.13;;;21.10;75.20;;;;;;5047309;28;20036;-84
2021/06/18 02:33:13;;;;;;;1.55;0.45;;;21.10;75.20;;;;;;5047441;28;20048;-83
2021/06/18 02:35:39;;;;;;;1.00;0.28;;;21.00;75.30;;;;;;5049746;28;20426;-83
2021/06/18 02:38:07;;;;;;;0.57;0.20;;;21.00;75.50;;;;;;5037504;28;20478;-81
2021/06/18 02:40:33;;;;;;;0.68;0.28;;;21.00;75.50;;;;;;5049867;28;20029;-82
2021/06/18 02:42:59;;;;;;;0.15;0.03;;;21.00;75.50;;;;;;5052839;28;20378;-84
2021/06/18 02:45:26;;;;;;;1.25;0.43;;;21.00;75.50;;;;;;5053117;28;20516;-83
2021/06/18 02:48:00;;;;;;;0.25;0.03;;;21.00;75.60;;;;;;5052274;28;20037;-83
2021/06/18 02:50:49;;;;;;;0.43;0.03;;;21.00;75.70;;;;;;5052485;28;20040;-83
2021/06/18 02:53:36;;;;;;;0.73;0.20;;;20.90;75.80;;;;;;5050834;28;20033;-82
2021/06/18 02:56:09;;;;;;;0.10;0.00;;;20.90;75.90;;;;;;5065957;28;20029;-82
2021/06/18 02:58:57;;;;;;;0.68;0.20;;;20.80;75.90;;;;;;5048066;28;20029;-83
2021/06/18 03:01:25;;;;;;;1.08;0.30;;;20.80;76.00;;;;;;5032472;28;20508;-84
2021/06/18 03:03:54;;;;;;;0.57;0.20;;;20.80;76.10;;;;;;5031804;28;20037;-83
2021/06/18 03:06:20;;;;;;;0.80;0.25;;;20.80;76.10;;;;;;5031523;28;20083;-83
2021/06/18 03:08:52;;;;;;;0.38;0.10;;;20.80;76.00;;;;;;5033521;28;20043;-83
2021/06/18 03:11:19;;;;;;;0.57;0.10;;;20.80;76.00;;;;;;5035083;28;20032;-83
2021/06/18 03:13:47;;;;;;;1.02;0.32;;;20.80;76.00;;;;;;5052726;28;20507;-82
2021/06/18 03:16:13;;;;;;;1.00;0.73;;;20.80;76.10;;;;;;5034602;28;20512;-83
2021/06/18 03:18:41;;;;;;;1.00;0.52;;;20.70;76.10;;;;;;5035493;28;20024;-83
2021/06/18 03:21:07;;;;;;;0.47;0.05;;;20.80;76.20;;;;;;5035390;28;20129;-83
2021/06/18 03:23:33;;;;;;;1.75;0.10;;;20.70;76.10;;;;;;5035487;28;20496;-83
2021/06/18 03:25:59;;;;;;;0.38;0.10;;;20.80;76.20;;;;;;5035825;28;20041;-81
2021/06/18 03:28:26;;;;;;;0.17;0.05;;;20.80;76.30;;;;;;5064129;28;20052;-80
2021/06/18 03:30:52;;;;;;;1.48;0.38;;;20.80;76.30;;;;;;5029189;28;20100;-83
2021/06/18 03:33:20;;;;;;;3.70;1.55;;;20.70;76.30;;;;;;5030777;28;20040;-83
2021/06/18 03:35:46;;;;;;;0.00;0.00;;;20.70;76.30;;;;;;5033250;28;20381;-83
2021/06/18 03:38:12;;;;;;;0.10;0.00;;;20.70;76.20;;;;;;5033289;28;20044;-83
2021/06/18 03:40:39;;;;;;;2.55;0.30;;;20.80;76.20;;;;;;5047664;28;20029;-82
2021/06/18 03:43:05;;;;;;;0.00;0.00;;;20.80;76.20;;;;;;5030710;28;20482;-81
2021/06/18 03:45:32;;;;;;;0.10;0.00;;;20.70;76.10;;;;;;5029688;28;20056;-82
2021/06/18 03:47:59;;;;;;;0.40;0.10;;;20.70;76.10;;;;;;5048675;28;20041;-82
2021/06/18 03:50:25;;;;;;;1.77;0.38;;;20.80;76.20;;;;;;5034925;28;20029;-82
2021/06/18 03:52:51;;;;;;;0.90;0.10;;;20.70;76.20;;;;;;5051852;28;20036;-83
2021/06/18 03:55:18;;;;;;;0.40;0.10;;;20.70;76.20;;;;;;5030585;28;20037;-82
2021/06/18 03:57:46;;;;;;;3.33;0.43;;;20.70;76.20;;;;;;5046856;28;20421;-82
2021/06/18 04:00:13;;;;;;;0.30;0.10;;;20.70;76.10;;;;;;5050380;28;20025;-83
2021/06/18 04:02:39;;;;;;;0.50;0.00;;;20.70;76.00;;;;;;5034660;28;20029;-83
2021/06/18 04:05:06;;;;;;;0.10;0.00;;;20.70;76.10;;;;;;5051494;28;20044;-82
2021/06/18 04:07:32;;;;;;;0.20;0.00;;;20.70;76.10;;;;;;5046273;28;20247;-84
2021/06/18 04:09:58;;;;;;;0.10;0.00;;;20.70;76.10;;;;;;5030199;28;20024;-83
2021/06/18 04:12:24;;;;;;;0.20;0.10;;;20.70;76.00;;;;;;5013882;28;20037;-84
2021/06/18 04:14:51;;;;;;;0.05;0.00;;;20.80;76.00;;;;;;5031403;28;20025;-84
2021/06/18 04:17:17;;;;;;;0.00;0.00;;;20.70;75.80;;;;;;5016463;28;20043;-84
2021/06/18 04:19:43;;;;;;;1.73;0.55;;;20.70;76.00;;;;;;5051563;28;20040;-84
2021/06/18 04:22:09;;;;;;;3.95;0.38;;;20.70;76.00;;;;;;5034272;28;20025;-84
2021/06/18 04:24:35;;;;;;;0.00;0.00;;;20.70;76.00;;;;;;5034311;28;20032;-83
2021/06/18 04:27:01;;;;;;;0.22;0.05;;;20.70;76.10;;;;;;5047812;28;20025;-83
2021/06/18 04:29:28;;;;;;;0.28;0.17;;;20.70;76.00;;;;;;5034585;28;20036;-84
2021/06/18 04:31:54;;;;;;;0.73;0.10;;;20.70;76.00;;;;;;5046447;28;20033;-83
2021/06/18 04:34:20;;;;;;;1.45;0.28;;;20.70;75.90;;;;;;5050753;28;20025;-84
2021/06/18 04:36:46;;;;;;;0.68;0.15;;;20.80;75.90;;;;;;5050606;28;20028;-85
2021/06/18 04:39:12;;;;;;;0.15;0.00;;;20.80;75.70;;;;;;5034212;28;20024;-84
2021/06/18 04:41:38;;;;;;;4.05;0.98;;;20.80;75.60;;;;;;5032849;28;20477;-85
2021/06/18 04:44:05;;;;;;;0.85;0.10;;;20.90;75.60;;;;;;5048579;28;20037;-84
2021/06/18 04:46:31;;;;;;;0.03;0.00;;;20.90;75.50;;;;;;5046960;28;20048;-84
2021/06/18 04:48:57;;;;;;;0.68;0.30;;;20.90;75.40;;;;;;5046045;28;20040;-85
2021/06/18 04:51:23;;;;;;;0.20;0.00;;;21.00;75.50;;;;;;5046024;28;20029;-84
2021/06/18 04:53:52;;;;;;;0.30;0.05;;;21.00;75.50;;;;;;5031562;28;20035;-84
2021/06/18 04:56:18;;;;;;;0.00;0.00;;;21.00;75.40;;;;;;5033024;28;20040;-83
2021/06/18 04:58:44;;;;;;;0.28;0.08;;;21.00;75.40;;;;;;5046405;28;20056;-84
2021/06/18 05:01:11;;;;;;;0.17;0.10;;;21.10;75.40;;;;;;5045527;28;20181;-84
2021/06/18 05:03:37;;;;;;;0.17;0.00;;;21.00;75.30;;;;;;5047755;28;20036;-85
2021/06/18 05:06:03;;;;;;;0.10;0.00;;;21.10;76.10;;;;;;5047159;28;20030;-84
2021/06/18 05:08:29;;;;;;;1.15;0.10;;;21.10;75.40;;;;;;5050390;28;20033;-83
2021/06/18 05:10:55;;;;;;;0.88;0.10;;;21.10;75.30;;;;;;5052120;28;20044;-83
2021/06/18 05:13:22;;;;;;;0.35;0.20;;;21.10;75.40;;;;;;5051309;28;20485;-84
2021/06/18 05:15:48;;;;;;;0.32;0.15;;;21.10;75.40;;;;;;5033260;28;20025;-84
2021/06/18 05:18:14;;;;;;;0.20;0.05;;;21.10;75.40;;;;;;5033837;28;20025;-84
2021/06/18 05:20:41;;;;;;;3.10;0.15;;;21.10;75.40;;;;;;5033789;28;20037;-84
2021/06/18 05:23:09;;;;;;;0.90;0.10;;;21.10;75.60;;;;;;5047689;28;20033;-83
2021/06/18 05:25:35;;;;;;;0.22;0.00;;;21.10;75.40;;;;;;5030543;28;20117;-86
2021/06/18 05:28:01;;;;;;;0.28;0.10;;;21.10;75.30;;;;;;5043522;28;20037;-83
2021/06/18 05:30:27;;;;;;;0.28;0.08;;;21.10;75.30;;;;;;5028671;28;20434;-83
2021/06/18 05:32:54;;;;;;;0.30;0.10;;;21.10;75.30;;;;;;5048344;28;20025;-84
2021/06/18 05:35:20;;;;;;;1.30;0.20;;;21.10;75.20;;;;;;5049056;28;20052;-84
2021/06/18 05:37:47;;;;;;;0.63;0.20;;;21.20;75.30;;;;;;5050644;28;20389;-83
2021/06/18 05:40:13;;;;;;;0.88;0.28;;;21.20;75.30;;;;;;5033737;28;20025;-84
2021/06/18 05:42:39;;;;;;;0.45;0.00;;;21.20;75.30;;;;;;5013858;28;20378;-83
2021/06/18 05:45:06;;;;;;;0.10;0.00;;;21.20;75.20;;;;;;5033194;28;20032;-83
2021/06/18 05:47:32;;;;;;;0.43;0.05;;;21.20;75.30;;;;;;5049001;28;20041;-83
2021/06/18 05:49:58;;;;;;;0.25;0.13;;;21.10;75.30;;;;;;5034118;28;20040;-83
2021/06/18 05:52:25;;;;;;;0.22;0.10;;;21.20;75.30;;;;;;5050167;28;20029;-83
2021/06/18 05:54:51;;;;;;;0.00;0.00;;;21.10;75.30;;;;;;5053298;28;20033;-83
2021/06/18 05:57:17;;;;;;;0.10;0.00;;;21.10;75.30;;;;;;5053181;28;20041;-82
2021/06/18 05:59:43;;;;;;;0.30;0.10;;;21.10;75.20;;;;;;5037085;28;20028;-82
2021/06/18 06:02:09;;;;;;;0.30;0.10;;;21.10;75.20;;;;;;5053054;28;20064;-83
2021/06/18 06:04:35;;;;;;;0.00;0.00;;;21.10;75.30;;;;;;5054985;28;20032;-79
2021/06/18 06:07:01;;;;;;;0.45;0.10;;;21.10;75.20;;;;;;5062096;28;20012;-81
2021/06/18 06:09:27;;;;;;;0.35;0.10;;;21.10;75.20;;;;;;5054876;28;20504;-83
2021/06/18 06:11:53;;;;;;;0.30;0.00;;;21.00;75.20;;;;;;5063528;28;20381;-83
2021/06/18 06:14:21;;;;;;;0.73;0.00;;;21.00;75.30;;;;;;5054359;28;20056;-83
2021/06/18 06:16:47;;;;;;;0.55;0.00;;;21.00;75.30;;;;;;5053289;28;20389;-83
2021/06/18 06:19:14;;;;;;;0.00;0.00;;;21.00;75.30;;;;;;5036557;28;20041;-83
2021/06/18 06:21:40;;;;;;;0.30;0.10;;;21.00;75.20;;;;;;5036607;28;20025;-83
2021/06/18 06:24:10;;;;;;;0.08;0.00;;;21.00;75.10;;;;;;5032091;28;20050;-80
2021/06/18 06:26:37;;;;;;;0.22;0.05;;;20.90;75.10;;;;;;5053366;28;20025;-82
2021/06/18 06:29:03;;;;;;;0.10;0.00;;;21.00;75.10;;;;;;5049813;28;20033;-82
2021/06/18 06:31:29;;;;;;;0.03;0.03;;;20.90;75.20;;;;;;5054008;28;20033;-83
2021/06/18 06:33:56;;;;;;;0.35;0.10;;;20.80;75.20;;;;;;5053997;28;20025;-82
2021/06/18 06:36:23;;;;;;;0.35;0.00;;;20.70;75.30;;;;;;5052823;28;20025;-83
2021/06/18 06:38:50;;;;;;;0.30;0.05;;;20.70;75.30;;;;;;5052619;28;20028;-82
2021/06/18 06:41:16;;;;;;;0.05;0.00;;;20.70;75.30;;;;;;5036352;28;20466;-82
2021/06/18 06:43:42;;;;;;;1.98;0.10;;;20.60;75.30;;;;;;5053335;28;20033;-82
2021/06/18 06:46:08;;;;;;;0.10;0.05;;;20.60;75.30;;;;;;5052018;28;20037;-83
2021/06/18 06:48:34;;;;;;;0.00;0.00;;;20.60;75.40;;;;;;5016869;28;20045;-83
2021/06/18 06:51:00;;;;;;;0.93;0.08;;;20.60;75.30;;;;;;5031974;28;20017;-82
2021/06/18 06:53:26;;;;;;;0.00;0.00;;;20.60;75.30;;;;;;5035652;28;20046;-82
2021/06/18 06:55:53;;;;;;;0.00;0.00;;;20.50;75.30;;;;;;5054308;28;20024;-83
2021/06/18 06:58:19;;;;;;;0.00;0.00;;;20.60;75.30;;;;;;5052506;28;20051;-83
2021/06/18 07:00:45;;;;;;;0.10;0.00;;;20.50;75.20;;;;;;5015996;28;20094;-83
2021/06/18 07:03:11;;;;;;;0.00;0.00;;;20.50;75.20;;;;;;5048069;28;20033;-83
2021/06/18 07:05:37;;;;;;;1.02;0.08;;;20.50;75.20;;;;;;5034950;28;20382;-83
2021/06/18 07:08:19;;;;;;;0.30;0.00;;;20.50;75.20;;;;;;5048701;28;20025;-83
2021/06/18 07:10:46;;;;;;;0.35;0.15;;;20.50;75.20;;;;;;5051248;28;20060;-84
2021/06/18 07:13:12;;;;;;;0.17;0.00;;;20.50;75.20;;;;;;5014976;28;20033;-84
2021/06/18 07:15:39;;;;;;;0.00;0.00;;;20.50;75.10;;;;;;5051644;28;20091;-83
2021/06/18 07:18:05;;;;;;;0.63;0.20;;;20.40;75.10;;;;;;5035447;28;20032;-84
2021/06/18 07:20:31;;;;;;;0.00;0.00;;;20.40;75.10;;;;;;5052060;28;20033;-83
2021/06/18 07:22:57;;;;;;;0.00;0.00;;;20.40;75.10;;;;;;5035911;28;20036;-81
2021/06/18 07:25:23;;;;;;;0.00;0.00;;;20.40;75.10;;;;;;5051802;28;20044;-84
2021/06/18 07:27:49;;;;;;;0.00;0.00;;;20.40;75.10;;;;;;5051925;28;20029;-83
2021/06/18 07:30:16;;;;;;;0.43;0.00;;;20.40;75.00;;;;;;5034634;28;20041;-82
2021/06/18 07:32:42;;;;;;;0.13;0.00;;;20.40;75.10;;;;;;5051806;28;20021;-83
2021/06/18 07:35:09;;;;;;;0.20;0.10;;;20.40;75.00;;;;;;5033334;28;20041;-83
2021/06/18 07:37:35;;;;;;;0.40;0.00;;;20.40;75.00;;;;;;5052088;28;20025;-83
2021/06/18 07:40:01;;;;;;;0.20;0.20;;;20.50;75.00;;;;;;5050622;28;20037;-83
2021/06/18 07:42:27;;;;;;;0.00;0.00;;;20.50;74.80;;;;;;5048277;28;20040;-83
2021/06/18 07:44:53;;;;;;;0.00;0.00;;;20.50;74.70;;;;;;5031853;28;20026;-83
2021/06/18 07:47:19;;;;;;;0.00;0.00;;;20.50;74.70;;;;;;5033541;28;20048;-83
2021/06/18 07:49:45;;;;;;;0.20;0.00;;;20.60;74.70;;;;;;5031872;28;20068;-82
2021/06/18 07:52:11;;;;;;;0.00;0.00;;;20.50;74.60;;;;;;5046757;28;20032;-84
2021/06/18 07:54:37;;;;;;;0.00;0.00;;;20.50;74.60;;;;;;5051457;28;20493;-83
2021/06/18 07:57:03;;;;;;;0.00;0.00;;;20.50;74.60;;;;;;5050352;28;20048;-82
2021/06/18 07:59:29;;;;;;;0.00;0.00;;;20.50;74.60;;;;;;5052583;28;20040;-83
2021/06/18 08:01:55;;;;;;;0.00;0.00;;;20.50;74.50;;;;;;5051289;28;20390;-81
2021/06/18 08:04:22;;;;;;;0.00;0.00;;;20.50;74.50;;;;;;5052435;28;20041;-83
2021/06/18 08:06:48;;;;;;;0.00;0.00;;;20.50;74.50;;;;;;5050885;28;20021;-84
2021/06/18 08:09:14;;;;;;;0.00;0.00;;;20.60;74.40;;;;;;5052310;28;20109;-84
2021/06/18 08:11:40;;;;;;;2.38;0.10;;;20.60;74.40;;;;;;5051089;28;20028;-84
2021/06/18 08:14:06;;;;;;;0.00;0.00;;;20.60;74.40;;;;;;5051229;28;20059;-84
2021/06/18 08:16:32;;;;;;;0.22;0.15;;;20.50;74.40;;;;;;5049646;28;20072;-83
2021/06/18 08:18:58;;;;;;;0.17;0.10;;;20.50;74.40;;;;;;5050023;28;20041;-83
2021/06/18 08:21:24;;;;;;;0.00;0.00;;;20.60;74.40;;;;;;5046106;28;20021;-84
2021/06/18 08:23:50;;;;;;;0.00;0.00;;;20.50;74.40;;;;;;5048244;28;20028;-84
2021/06/18 08:26:16;;;;;;;0.00;0.00;;;20.50;74.40;;;;;;5049284;28;20032;-83
2021/06/18 08:28:42;;;;;;;0.03;0.00;;;20.50;74.50;;;;;;5051196;28;20389;-81
2021/06/18 08:31:09;;;;;;;0.00;0.00;;;20.50;74.50;;;;;;5050195;28;20044;-83
2021/06/18 08:33:36;;;;;;;0.00;0.00;;;20.50;74.50;;;;;;5052005;28;20038;-82
2021/06/18 08:36:03;;;;;;;0.00;0.00;;;20.50;74.50;;;;;;5051709;28;20033;-82
2021/06/18 08:38:30;;;;;;;8.43;0.13;;;20.50;74.50;;;;;;5035118;28;20052;-83
2021/06/18 08:40:56;;;;;;;0.00;0.00;;;20.50;74.50;;;;;;5051474;28;20031;-82
2021/06/18 08:43:22;;;;;;;0.38;0.00;;;20.40;74.50;;;;;;5050614;28;20460;-83
2021/06/18 08:45:48;;;;;;;0.00;0.00;;;20.40;74.50;;;;;;5033537;28;20048;-84
2021/06/18 08:48:14;;;;;;;0.43;0.20;;;20.50;74.50;;;;;;5051733;28;20493;-84
2021/06/18 08:50:40;;;;;;;0.75;0.10;;;20.50;74.50;;;;;;5051508;28;20033;-84
2021/06/18 08:53:10;;;;;;;0.00;0.00;;;20.40;74.40;;;;;;5050842;28;20021;-82
2021/06/18 08:55:37;;;;;;;0.55;0.20;;;20.40;74.40;;;;;;5051003;28;20032;-82
2021/06/18 08:58:03;;;;;;;1.30;0.10;;;20.50;74.40;;;;;;5051642;28;20040;-82
2021/06/18 09:00:30;;;;;;;0.10;0.00;;;20.50;74.40;;;;;;5045615;28;20040;-83
2021/06/18 09:02:56;;;;;;;0.00;0.00;;;20.50;74.40;;;;;;5046998;28;20021;-83
2021/06/18 09:05:23;;;;;;;0.30;0.05;;;20.60;74.40;;;;;;5032843;28;20037;-82
2021/06/18 09:08:02;;;;;;;0.55;0.20;;;20.60;74.30;;;;;;5050900;28;20386;-84
2021/06/18 09:10:42;;;;;;;0.57;0.00;;;20.60;74.30;;;;;;5050247;28;20041;-84
2021/06/18 09:13:19;;;;;;;0.28;0.00;;;20.60;74.20;;;;;;5034700;28;20048;-84
2021/06/18 09:15:53;;;;;;;0.00;0.00;;;20.70;74.20;;;;;;5051134;28;20033;-83
2021/06/18 09:18:35;;;;;;;0.20;0.00;;;20.70;74.10;;;;;;5050046;28;20381;-83
2021/06/18 09:21:14;;;;;;;0.05;0.00;;;20.70;74.10;;;;;;5051677;28;20029;-82
2021/06/18 09:23:45;;;;;;;0.00;0.00;;;20.80;74.80;;;;;;5034765;28;20025;-84
2021/06/18 09:26:31;;;;;;;0.10;0.00;;;20.80;73.90;;;;;;5048215;28;20032;-81
2021/06/18 09:29:19;;;;;;;0.00;0.00;;;20.90;74.10;;;;;;5048727;28;20044;-82
2021/06/18 09:31:51;;;;;;;0.57;0.10;;;20.90;73.90;;;;;;5052636;28;20037;-83
2021/06/18 09:34:49;;;;;;;0.10;0.00;;;20.90;73.80;;;;;;5052679;28;20036;-83
2021/06/18 09:37:42;;;;;;;0.28;0.10;;;21.00;73.80;;;;;;5055111;28;20033;-83
2021/06/18 09:40:20;;;;;;;0.00;0.00;;;21.00;73.60;;;;;;5048663;28;20029;-84
2021/06/18 09:42:53;;;;;;;0.00;0.00;;;21.00;73.60;;;;;;5049448;28;20035;-84
2021/06/18 09:45:22;;;;;;;0.10;0.00;;;21.00;73.60;;;;;;5053244;28;20044;-84
2021/06/18 09:47:49;;;;;;;3.03;0.08;;;20.90;73.70;;;;;;5053566;28;20033;-84
2021/06/18 09:50:15;;;;;;;0.43;0.00;;;20.90;73.80;;;;;;5035949;28;20109;-83
2021/06/18 09:52:44;;;;;;;0.20;0.00;;;20.90;73.80;;;;;;5053895;28;20108;-84
2021/06/18 09:55:21;;;;;;;0.10;0.00;;;20.90;73.80;;;;;;5037005;28;20041;-84
2021/06/18 09:57:53;;;;;;;0.20;0.10;;;21.00;73.80;;;;;;5037495;28;20021;-84
2021/06/18 10:00:20;;;;;;;0.30;0.00;;;21.00;73.70;;;;;;5054160;28;20029;-85
2021/06/18 10:02:53;;;;;;;0.10;0.00;;;21.00;73.60;;;;;;5036683;28;20411;-84
2021/06/18 10:05:23;;;;;;;0.00;0.00;;;21.10;73.60;;;;;;5037309;28;20025;-84
2021/06/18 10:07:50;;;;;;;0.08;0.00;;;21.10;73.60;;;;;;5033845;28;20037;-84
2021/06/18 10:10:18;;;;;;;0.30;0.00;;;21.10;73.50;;;;;;5048778;28;20044;-81
2021/06/18 10:12:45;;;;;;;0.30;0.03;;;21.20;73.50;;;;;;5032426;28;20028;-84
2021/06/18 10:15:13;;;;;;;0.00;0.00;;;21.30;73.40;;;;;;5031896;28;20029;-84
2021/06/18 10:17:40;;;;;;;0.70;0.00;;;21.40;73.30;;;;;;5035847;28;20115;-84
2021/06/18 10:20:12;;;;;;;0.03;0.00;;;21.40;73.20;;;;;;5050410;28;20044;-84
2021/06/18 10:22:51;;;;;;;0.90;0.20;;;21.40;73.20;;;;;;5050081;28;20033;-84
2021/06/18 10:25:25;;;;;;;0.17;0.03;;;21.40;73.20;;;;;;5053110;28;20501;-84
2021/06/18 10:27:51;;;;;;;0.10;0.00;;;21.40;73.30;;;;;;5053233;28;20378;-85
2021/06/18 10:30:28;;;;;;;0.38;0.10;;;21.30;73.20;;;;;;5035834;28;20056;-84
2021/06/18 10:32:56;;;;;;;0.00;0.00;;;21.30;73.30;;;;;;5052812;28;20024;-85
2021/06/18 10:35:47;;;;;;;0.00;0.00;;;21.30;73.30;;;;;;5052915;28;20056;-82
2021/06/18 10:38:39;;;;;;;0.00;0.00;;;21.30;73.30;;;;;;5067294;28;20390;-84
2021/06/18 10:41:18;;;;;;;0.20;0.05;;;21.30;73.30;;;;;;5056211;28;20375;-83
2021/06/18 10:43:49;;;;;;;1.42;0.10;;;21.40;73.30;;;;;;5050056;28;20032;-84
2021/06/18 10:46:15;;;;;;;;;;;21.40;73.30;;;;;;5049024;28;20436;-84
2021/06/18 10:48:47;;;;;;;0.77;0.10;;;21.40;73.20;;;;;;5049581;28;19966;-85
2021/06/18 10:51:37;;;;;;;1.33;0.20;;;21.40;73.10;;;;;;5053622;28;20033;-84
2021/06/18 10:54:29;;;;;;;0.13;0.03;;;21.50;73.20;;;;;;5031936;28;20257;-85
2021/06/18 10:56:57;;;;;;;0.40;0.03;;;21.50;73.10;;;;;;5037482;28;20036;-85
2021/06/18 10:59:37;;;;;;;2.85;0.20;;;21.60;73.10;;;;;;5019645;28;20048;-86
2021/06/18 11:02:23;;;;;;;1.60;0.55;;;21.60;72.90;;;;;;5051903;28;20037;-82
2021/06/18 11:04:52;;;;;;;1.38;0.45;;;21.70;72.90;;;;;;5053929;28;20379;-85
2021/06/18 11:07:27;;;;;;;1.55;0.35;;;21.70;72.80;;;;;;5035906;28;20029;-83
2021/06/18 11:09:57;;;;;;;0.60;0.10;;;21.80;72.80;;;;;;5053316;28;20036;-85
2021/06/18 11:12:24;;;;;;;0.75;0.15;;;21.90;72.70;;;;;;5035719;28;20029;-87
2021/06/18 11:14:59;;;;;;;0.63;0.25;;;22.10;72.40;;;;;;5053048;28;20040;-85
2021/06/18 11:17:53;;;;;;;0.52;0.20;;;22.20;72.20;;;;;;5035525;28;20381;-85
2021/06/18 11:20:21;;;;;;;1.17;0.20;;;22.30;72.00;;;;;;5050984;28;20056;-84
2021/06/18 11:22:55;;;;;;;0.88;0.20;;;22.50;71.80;;;;;;5052539;28;20036;-85
2021/06/18 11:25:36;;;;;;;0.70;0.30;;;22.70;71.50;;;;;;5031839;28;20037;-85
2021/06/18 11:28:21;;;;;;;0.88;0.30;;;22.90;71.20;;;;;;5048702;28;20029;-84
2021/06/18 11:30:53;;;;;;;0.40;0.10;;;23.20;70.80;;;;;;5047668;28;20389;-81
2021/06/18 11:33:41;;;;;;;1.65;0.57;;;23.50;70.40;;;;;;5048674;28;20081;-84
2021/06/18 11:36:12;;;;;;;1.02;0.30;;;23.60;70.10;;;;;;5049131;28;20029;-85
2021/06/18 11:38:39;;;;;;;1.40;0.13;;;23.60;70.00;;;;;;5051855;28;20474;-86
2021/06/18 11:41:09;;;;;;;0.80;0.30;;;23.50;70.20;;;;;;5032294;28;20046;-86
2021/06/18 11:43:35;;;;;;;0.55;0.20;;;23.50;70.40;;;;;;5047863;28;20032;-85
2021/06/18 11:46:01;;;;;;;2.28;0.17;;;23.50;70.40;;;;;;5029898;28;20559;-85
2021/06/18 11:48:28;;;;;;;0.15;0.00;;;23.50;70.50;;;;;;5034921;28;20029;-84
2021/06/18 11:50:54;;;;;;;0.45;0.15;;;23.50;70.40;;;;;;5034136;28;20059;-85
2021/06/18 11:53:23;;;;;;;0.75;0.17;;;23.50;70.40;;;;;;5051551;28;20474;-85
2021/06/18 11:56:02;;;;;;;0.30;0.10;;;23.50;70.20;;;;;;5051982;28;20041;-86
2021/06/18 11:58:32;;;;;;;1.70;0.30;;;23.50;70.20;;;;;;5030722;28;20382;-85
2021/06/18 12:01:09;;;;;;;1.25;0.28;;;23.50;70.20;;;;;;5029875;28;20498;-85
2021/06/18 12:03:35;;;;;;;0.43;0.10;;;23.50;70.30;;;;;;5047937;28;20021;-85
2021/06/18 12:06:20;;;;;;;0.60;0.20;;;23.40;70.30;;;;;;5047058;28;20038;-85
2021/06/18 12:09:12;;;;;;;0.45;0.17;;;23.40;70.50;;;;;;5035530;28;20024;-85
2021/06/18 12:11:46;;;;;;;1.00;0.28;;;23.30;70.50;;;;;;5035618;28;20033;-86
2021/06/18 12:14:14;;;;;;;1.23;0.30;;;23.30;70.60;;;;;;5048440;28;20033;-86
2021/06/18 12:16:44;;;;;;;0.90;0.15;;;23.40;70.60;;;;;;5046548;28;20422;-85
2021/06/18 12:19:20;;;;;;;1.33;0.15;;;23.40;70.40;;;;;;5030590;28;20021;-85
2021/06/18 12:22:14;;;;;;;1.08;0.30;;;23.50;70.20;;;;;;5049959;28;20033;-84
2021/06/18 12:24:51;;;;;;;3.15;0.28;;;23.50;70.10;;;;;;5030039;28;20433;-86
2021/06/18 12:27:21;;;;;;;0.68;0.20;;;23.50;70.00;;;;;;5050469;28;20025;-85
2021/06/18 12:29:52;;;;;;;1.38;0.20;;;23.60;69.90;;;;;;5034392;28;20482;-86
2021/06/18 12:32:19;;;;;;;0.35;0.10;;;23.70;69.80;;;;;;5034286;28;20033;-85
2021/06/18 12:34:55;;;;;;;0.98;0.22;;;23.80;69.60;;;;;;5050932;28;20041;-84
2021/06/18 12:37:26;;;;;;;0.20;0.10;;;23.80;69.40;;;;;;5035537;28;20473;-85
2021/06/18 12:39:54;;;;;;;0.80;0.13;;;23.80;69.30;;;;;;5034717;28;20501;-86
2021/06/18 12:42:26;;;;;;;0.55;0.17;;;23.80;69.40;;;;;;5030882;28;20040;-84
2021/06/18 12:45:06;;;;;;;0.77;0.22;;;23.70;69.40;;;;;;5049008;28;20034;-85
2021/06/18 12:47:32;;;;;;;2.22;0.32;;;23.70;69.50;;;;;;5035347;28;20049;-84
2021/06/18 12:49:58;;;;;;;0.47;0.10;;;23.60;69.60;;;;;;5046860;28;20044;-86
2021/06/18 12:52:24;;;;;;;0.32;0.15;;;23.60;69.80;;;;;;5029503;28;20032;-86
2021/06/18 12:55:03;;;;;;;1.33;0.25;;;23.50;69.80;;;;;;5046183;28;20043;-86
2021/06/18 12:57:29;;;;;;;0.95;0.32;;;23.40;69.90;;;;;;5045763;28;20032;-85
2021/06/18 13:00:14;;;;;;;0.90;0.30;;;23.40;69.90;;;;;;5034052;28;20040;-86